Date,TemperatureHighF,TemperatureAvgF,TemperatureLowF,DewpointHighF,DewpointAvgF,DewpointLowF,HumidityHigh,HumidityAvg,HumidityLow,PressureMaxIn,PressureMinIn,WindSpeedMaxMPH,WindSpeedAvgMPH,GustSpeedMaxMPH,PrecipitationSumIn
2013-3-1,75.4,53.1,42.6,66.4,43.9,39.4,94,72,49,30.24,30.21,4,1,9,0.20
2013-3-2,52.9,46.6,34.7,48.0,39.4,25.3,85,76,59,30.24,30.06,7,2,17,0.00
2013-3-3,75.6,47.0,33.6,52.3,30.9,24.6,75,56,32,30.30,30.18,6,2,16,0.20
2013-3-4,62.6,43.4,33.6,46.8,28.1,23.2,69,56,36,30.30,29.94,5,1,10,0.08
2013-3-5,59.5,44.1,35.8,40.1,31.7,24.1,76,62,42,29.94,29.74,5,1,18,0.24
2013-3-6,46.9,42.9,40.3,41.5,37.2,34.5,85,80,76,29.88,29.65,2,0,8,0.60
2013-3-7,57.7,44.3,38.7,50.7,38.8,33.8,90,81,70,30.09,29.88,4,1,13,0.20
2013-3-8,69.8,44.4,38.5,49.3,36.5,33.6,84,75,43,30.12,30.09,5,1,9,0.24
2013-3-13,58.6,50.5,43.9,55.8,48.6,41.9,94,93,87,30.12,30.06,3,0,7,0.28
2013-3-15,53.2,49.5,47.5,44.8,43.1,41.0,83,79,72,30.15,30.12,3,0,8,0.00
2013-3-16,50.0,45.8,38.7,45.3,40.0,30.2,90,80,58,30.12,29.88,10,2,27,0.16
2013-3-17,63.7,45.4,37.9,34.3,29.3,23.9,70,55,32,30.15,29.94,9,5,22,0.44
2013-3-18,70.0,46.5,37.0,45.3,31.8,27.9,79,61,26,30.18,30.06,8,3,18,0.24
2013-3-21,65.7,45.0,34.7,49.8,29.5,21.0,74,56,36,30.21,30.09,8,4,19,0.20
2013-3-22,69.3,44.6,31.3,48.7,25.9,20.8,70,50,27,30.36,30.18,10,2,13,0.39
2013-3-23,69.8,45.5,34.7,41.7,27.0,21.2,64,50,27,30.39,30.30,6,1,10,0.16
2013-3-24,60.3,43.9,34.5,39.7,29.8,25.0,71,59,37,30.30,30.12,9,1,9,0.36
2013-3-25,79.0,51.1,34.0,58.3,30.7,23.5,81,50,25,30.12,29.97,9,1,10,0.24
2013-3-26,73.0,52.3,40.8,46.0,33.2,29.1,68,50,32,30.01,29.97,7,1,7,0.08
2013-3-27,71.1,51.8,42.1,54.8,37.3,29.9,73,59,37,30.00,29.95,8,1,8,0.16
2013-3-28,69.4,51.7,43.0,65.3,45.4,34.9,100,79,69,30.15,30.00,4,1,9,0.12
2013-3-29,74.5,53.3,40.5,54.3,40.6,33.3,82,64,40,30.27,30.15,5,1,9,0.00
2013-3-30,76.8,55.2,40.8,50.5,38.6,31.6,74,56,32,30.27,30.12,5,2,10,0.00
2013-3-31,79.3,57.9,44.2,48.0,36.5,31.1,62,47,24,30.12,29.91,4,1,22,0.40